This is the latest recevied weather packets stored in our database for station/object AB8XS. If no packets are shown the sender has not sent any weather packets the latest 10 day(s).
| Time | Temp. | Humidity | Pressure | Rain* | Wind** | Luminosity | Snow |
|---|---|---|---|---|---|---|---|
| 1777828348 | 12.78° C | 61% | 1010.2 hPa | 0 mm | - | 390 W/m² | - |
| 1777718117 | 0° C | 87% | 1018 hPa | 0 mm | - | 0 W/m² | - |
| 1777715162 | 1.11° C | 85% | 1018 hPa | 0 mm | - | 0 W/m² | - |
| 1777710077 | 2.22° C | 80% | 1017.8 hPa | 0 mm | - | 0 W/m² | - |
| 1777698624 | 3.89° C | 66% | 1017.8 hPa | 0 mm | - | 0 W/m² | - |
| 1777696217 | 4.44° C | 65% | 1017.7 hPa | 0 mm | - | 0 W/m² | - |
| 1777695917 | 4.44° C | 64% | 1017.7 hPa | 0 mm | - | 0 W/m² | - |
| 1777695016 | 4.44° C | 64% | 1017.7 hPa | 0 mm | - | 0 W/m² | - |
| 1777690232 | 4.44° C | 63% | 1017.5 hPa | 0 mm | - | 0 W/m² | - |
| 1777689917 | 4.44° C | 63% | 1017.4 hPa | 0 mm | - | 0 W/m² | - |
| 1777689617 | 4.44° C | 63% | 1017.4 hPa | 0 mm | - | 0 W/m² | - |
| 1777687817 | 5° C | 62% | 1017.3 hPa | 0 mm | - | 0 W/m² | - |
| 1777687517 | 5° C | 61% | 1017.2 hPa | 0 mm | - | 0 W/m² | - |
| 1777683017 | 5.56° C | 60% | 1016.6 hPa | 0 mm | - | 0 W/m² | - |
| 1777682417 | 5.56° C | 60% | 1016.6 hPa | 0 mm | - | 0 W/m² | - |
| 1777681817 | 5.56° C | 58% | 1016.6 hPa | 0 mm | - | 7 W/m² | - |
| 1777680317 | 5.56° C | 57% | 1016.2 hPa | 0 mm | - | 21 W/m² | - |
| 1777678217 | 6.11° C | 53% | 1016.2 hPa | 0 mm | - | 35 W/m² | - |
| 1777677317 | 7.22° C | 48% | 1016.2 hPa | 0 mm | - | 69 W/m² | - |
| 1777676717 | 7.22° C | 48% | 1016.1 hPa | 0 mm | - | 69 W/m² | - |
| 1777675517 | 7.22° C | 47% | 1016 hPa | 0 mm | - | 88 W/m² | - |
| 1777674017 | 7.78° C | 45% | 1016 hPa | 0 mm | - | 70 W/m² | - |
| 1777673717 | 7.78° C | 50% | 1015.9 hPa | 0 mm | - | 67 W/m² | - |
| 1777669517 | 9.44° C | 44% | 1015.5 hPa | 0 mm | - | 254 W/m² | - |
| 1777669216 | 9.44° C | 47% | 1015.5 hPa | 0 mm | - | 272 W/m² | - |
* Rain latest hour (hover to see other rain measurements)
** Current wind speed in m/s (hover to see current wind gust speed)